createdAt,value
2018-07-26T00:00:53.541Z,100818.77
2018-07-26T00:03:23.389Z,100820.94
2018-07-26T00:05:52.213Z,100827.73
2018-07-26T00:08:21.418Z,100824.47
2018-07-26T00:10:50.458Z,100819.03
2018-07-26T00:13:19.199Z,100825.02
2018-07-26T00:15:48.085Z,100823.14
2018-07-26T00:18:17.216Z,100826.41
2018-07-26T00:20:46.276Z,100825.05
2018-07-26T00:23:15.115Z,100824.50
2018-07-26T00:25:44.037Z,100830.75
2018-07-26T00:28:12.808Z,100827.46
2018-07-26T00:30:41.819Z,100827.20
2018-07-26T00:33:10.765Z,100834.53
2018-07-26T00:35:39.762Z,100831.27
2018-07-26T00:38:08.580Z,100826.66
2018-07-26T00:40:37.465Z,100822.58
2018-07-26T00:43:06.463Z,100823.93
2018-07-26T00:45:35.705Z,100824.19
2018-07-26T00:48:04.620Z,100825.55
2018-07-26T00:50:33.505Z,100819.85
2018-07-26T00:53:02.354Z,100819.55
2018-07-26T00:55:30.877Z,100819.26
2018-07-26T00:57:59.734Z,100821.96
2018-07-26T01:00:28.512Z,100823.02
2018-07-26T01:02:57.046Z,100818.64
2018-07-26T01:05:25.624Z,100817.00
2018-07-26T01:07:54.249Z,100820.06
2018-07-26T01:10:22.930Z,100814.64
2018-07-26T01:12:52.807Z,100819.85
2018-07-26T01:15:21.547Z,100809.23
2018-07-26T01:17:50.192Z,100816.02
2018-07-26T01:20:18.845Z,100815.19
2018-07-26T01:22:47.540Z,100808.11
2018-07-26T01:25:16.218Z,100808.84
2018-07-26T01:27:44.779Z,100805.84
2018-07-26T01:30:13.445Z,100803.66
2018-07-26T01:32:42.039Z,100801.75
2018-07-26T01:35:10.699Z,100800.63
2018-07-26T01:37:39.498Z,100804.98
2018-07-26T01:40:08.073Z,100804.19
2018-07-26T01:42:49.490Z,100809.64
2018-07-26T01:45:18.030Z,100798.77
2018-07-26T01:47:46.591Z,100800.11
2018-07-26T01:50:15.143Z,100801.45
2018-07-26T01:52:43.682Z,100807.69
2018-07-26T01:55:12.351Z,100798.14
2018-07-26T01:57:40.883Z,100797.59
2018-07-26T02:00:09.681Z,100796.47
2018-07-26T02:02:38.399Z,100798.09
2018-07-26T02:05:07.094Z,100797.27
2018-07-26T02:07:35.756Z,100797.78
2018-07-26T02:10:04.436Z,100797.77
2018-07-26T02:12:35.411Z,100801.03
2018-07-26T02:15:04.131Z,100797.19
2018-07-26T02:17:32.791Z,100801.80
2018-07-26T02:20:01.554Z,100799.37
2018-07-26T02:22:30.270Z,100798.30
2018-07-26T02:24:58.935Z,100798.54
2018-07-26T02:27:27.716Z,100800.16
2018-07-26T02:29:56.266Z,100798.77
2018-07-26T02:32:24.906Z,100793.86
2018-07-26T02:34:53.560Z,100799.00
2018-07-26T02:37:22.195Z,100794.12
2018-07-26T02:39:50.883Z,100802.50
2018-07-26T02:42:19.522Z,100795.47
2018-07-26T02:44:48.223Z,100800.13
2018-07-26T02:47:16.925Z,100794.72
2018-07-26T02:49:45.585Z,100796.34
2018-07-26T02:52:14.229Z,100800.98
2018-07-26T02:54:42.869Z,100792.56
2018-07-26T02:57:11.518Z,100797.16
2018-07-26T02:59:40.207Z,100793.63
2018-07-26T03:02:08.983Z,100793.91
2018-07-26T03:04:37.738Z,100794.46
2018-07-26T03:07:06.850Z,100791.22
2018-07-26T03:09:35.471Z,100793.66
2018-07-26T03:12:04.062Z,100789.87
2018-07-26T03:14:36.846Z,100789.58
2018-07-26T03:17:05.560Z,100792.03
2018-07-26T03:19:34.230Z,100797.20
2018-07-26T03:22:02.795Z,100796.69
2018-07-26T03:24:31.526Z,100797.23
2018-07-26T03:27:00.182Z,100793.45
2018-07-26T03:29:28.772Z,100792.91
2018-07-26T03:31:57.506Z,100788.55
2018-07-26T03:34:26.149Z,100799.95
2018-07-26T03:36:54.742Z,100795.33
2018-07-26T03:39:23.456Z,100791.28
2018-07-26T03:41:52.140Z,100791.59
2018-07-26T03:44:20.905Z,100796.78
2018-07-26T03:46:49.597Z,100792.20
2018-07-26T03:49:18.303Z,100792.48
2018-07-26T03:51:47.018Z,100790.90
2018-07-26T03:54:15.649Z,100797.97
2018-07-26T03:56:44.485Z,100799.15
2018-07-26T03:59:13.043Z,100792.09
2018-07-26T04:01:41.729Z,100791.84
2018-07-26T04:04:11.424Z,100792.39
2018-07-26T04:06:40.620Z,100794.59
2018-07-26T04:09:16.271Z,100788.61
2018-07-26T04:11:46.060Z,100790.23
2018-07-26T04:14:14.756Z,100785.61
2018-07-26T04:16:43.406Z,100794.06
2018-07-26T04:19:12.649Z,100798.40
2018-07-26T04:21:41.970Z,100801.12
2018-07-26T04:24:10.708Z,100804.13
2018-07-26T04:26:39.424Z,100809.58
2018-07-26T04:29:08.125Z,100811.77
2018-07-26T04:31:36.874Z,100812.30
2018-07-26T04:34:13.139Z,100815.84
2018-07-26T04:36:41.880Z,100812.59
2018-07-26T04:39:10.991Z,100814.52
2018-07-26T04:41:39.773Z,100821.03
2018-07-26T04:44:08.578Z,100821.31
2018-07-26T04:46:37.349Z,100824.56
2018-07-26T04:49:05.960Z,100819.94
2018-07-26T04:51:34.695Z,100819.94
2018-07-26T04:54:03.419Z,100822.91
2018-07-26T04:56:32.063Z,100825.61
2018-07-26T04:59:00.873Z,100824.23
2018-07-26T05:01:29.623Z,100824.49
2018-07-26T05:03:58.410Z,100820.09
2018-07-26T05:06:27.116Z,100821.70
2018-07-26T05:08:55.853Z,100827.15
2018-07-26T05:11:24.580Z,100825.74
2018-07-26T05:13:53.224Z,100820.24
2018-07-26T05:16:22.029Z,100820.73
2018-07-26T05:18:50.613Z,100822.88
2018-07-26T05:21:19.315Z,100818.74
2018-07-26T05:23:47.966Z,100818.97
2018-07-26T05:26:16.680Z,100815.63
2018-07-26T05:28:45.443Z,100819.66
2018-07-26T05:31:14.267Z,100825.10
2018-07-26T05:33:42.994Z,100818.81
2018-07-26T05:36:11.845Z,100823.96
2018-07-26T05:38:40.479Z,100828.02
2018-07-26T05:41:09.229Z,100831.51
2018-07-26T05:43:37.890Z,100831.42
2018-07-26T05:46:07.404Z,100833.20
2018-07-26T05:48:36.199Z,100832.22
2018-07-26T05:51:04.946Z,100829.31
2018-07-26T05:53:33.713Z,100835.66
2018-07-26T05:56:02.477Z,100829.64
2018-07-26T05:58:31.139Z,100829.63
2018-07-26T06:00:59.930Z,100835.09
2018-07-26T06:03:28.565Z,100836.44
2018-07-26T06:05:57.263Z,100837.45
2018-07-26T06:08:25.995Z,100833.40
2018-07-26T06:10:54.616Z,100836.02
2018-07-26T06:13:23.399Z,100839.08
2018-07-26T06:15:51.976Z,100840.23
2018-07-26T06:18:20.798Z,100840.78
2018-07-26T06:20:49.814Z,100837.56
2018-07-26T06:23:18.579Z,100843.06
2018-07-26T06:25:47.297Z,100845.34
2018-07-26T06:28:16.034Z,100842.06
2018-07-26T06:30:44.801Z,100845.54
2018-07-26T06:33:13.434Z,100842.88
2018-07-26T06:35:42.036Z,100842.83
2018-07-26T06:38:11.191Z,100837.26
2018-07-26T06:40:39.806Z,100842.40
2018-07-26T06:43:08.586Z,100835.78
2018-07-26T06:45:37.474Z,100834.19
2018-07-26T06:48:07.051Z,100834.59
2018-07-26T06:50:35.665Z,100830.41
2018-07-26T06:53:04.563Z,100830.45
2018-07-26T06:55:33.179Z,100832.87
2018-07-26T06:58:01.926Z,100834.53
2018-07-26T07:00:30.564Z,100833.77
2018-07-26T07:02:59.263Z,100838.26
2018-07-26T07:05:27.921Z,100841.52
2018-07-26T07:07:56.649Z,100838.34
2018-07-26T07:10:25.272Z,100838.38
2018-07-26T07:12:54.085Z,100836.02
2018-07-26T07:15:22.840Z,100839.36
2018-07-26T07:17:51.518Z,100834.34
2018-07-26T07:20:20.133Z,100839.44
2018-07-26T07:22:48.941Z,100834.82
2018-07-26T07:25:17.837Z,100836.68
2018-07-26T07:27:46.693Z,100833.78
2018-07-26T07:30:15.447Z,100838.31
2018-07-26T07:32:44.097Z,100842.07
2018-07-26T07:35:12.879Z,100842.41
2018-07-26T07:37:41.545Z,100836.26
2018-07-26T07:40:10.930Z,100842.25
2018-07-26T07:42:39.899Z,100837.00
2018-07-26T07:45:09.510Z,100842.98
2018-07-26T07:47:38.299Z,100837.10
2018-07-26T07:50:07.119Z,100833.20
2018-07-26T07:52:35.863Z,100831.59
2018-07-26T07:55:05.135Z,100833.67
2018-07-26T07:57:33.858Z,100832.22
2018-07-26T08:00:02.803Z,100832.58
2018-07-26T08:02:31.461Z,100837.11
2018-07-26T08:05:01.307Z,100829.80
2018-07-26T08:07:30.018Z,100831.84
2018-07-26T08:09:58.791Z,100832.67
2018-07-26T08:12:27.528Z,100833.55
2018-07-26T08:14:58.343Z,100837.17
2018-07-26T08:17:27.075Z,100837.08
2018-07-26T08:19:56.870Z,100837.81
2018-07-26T08:22:25.527Z,100830.78
2018-07-26T08:24:55.404Z,100840.92
2018-07-26T08:27:24.675Z,100841.75
2018-07-26T08:29:53.454Z,100837.93
2018-07-26T08:32:22.095Z,100838.15
2018-07-26T08:34:55.892Z,100835.83
2018-07-26T08:37:24.569Z,100832.27
2018-07-26T08:39:53.192Z,100826.56
2018-07-26T08:42:21.896Z,100827.80
2018-07-26T08:44:50.819Z,100830.88
2018-07-26T08:47:19.527Z,100830.05
2018-07-26T08:49:48.267Z,100825.73
2018-07-26T08:52:17.056Z,100829.00
2018-07-26T08:54:46.184Z,100827.41
2018-07-26T08:57:14.820Z,100831.44
2018-07-26T08:59:52.323Z,100817.63
2018-07-26T09:02:27.568Z,100822.71
2018-07-26T09:05:06.420Z,100812.82
2018-07-26T09:07:44.438Z,100818.16
2018-07-26T09:10:17.891Z,100814.84
2018-07-26T09:12:46.603Z,100811.23
2018-07-26T09:15:23.627Z,100818.83
2018-07-26T09:18:10.429Z,100811.29
2018-07-26T09:20:52.279Z,100811.36
2018-07-26T09:23:25.702Z,100816.16
2018-07-26T09:26:17.553Z,100809.11
2018-07-26T09:28:58.782Z,100802.31
2018-07-26T09:31:28.360Z,100810.28
2018-07-26T09:33:57.000Z,100799.98
2018-07-26T09:36:25.717Z,100802.50
2018-07-26T09:38:54.556Z,100800.79
2018-07-26T09:41:23.290Z,100804.11
2018-07-26T09:43:51.955Z,100799.83
2018-07-26T09:46:20.764Z,100801.08
2018-07-26T09:48:49.542Z,100798.31
2018-07-26T09:51:18.161Z,100797.52
2018-07-26T09:53:46.995Z,100789.65
2018-07-26T09:56:15.690Z,100789.33
2018-07-26T09:58:44.405Z,100791.04
2018-07-26T10:01:18.500Z,100791.99
2018-07-26T10:03:47.352Z,100789.64
2018-07-26T10:06:16.121Z,100791.64
2018-07-26T10:08:44.968Z,100785.18
2018-07-26T10:11:13.559Z,100799.03
2018-07-26T10:13:43.554Z,100793.37
2018-07-26T10:16:12.647Z,100784.53
2018-07-26T10:18:41.779Z,100785.55
2018-07-26T10:21:10.473Z,100781.31
2018-07-26T10:23:39.107Z,100786.11
2018-07-26T10:26:08.792Z,100784.66
2018-07-26T10:28:38.533Z,100769.01
2018-07-26T10:31:07.980Z,100769.99
2018-07-26T10:33:36.632Z,100767.02
2018-07-26T10:36:07.855Z,100765.19
2018-07-26T10:38:36.487Z,100766.78
2018-07-26T10:41:05.271Z,100762.20
2018-07-26T10:43:34.205Z,100765.33
2018-07-26T10:46:02.951Z,100760.19
2018-07-26T10:48:31.819Z,100767.05
2018-07-26T10:51:00.471Z,100766.35
2018-07-26T10:53:29.093Z,100772.03
2018-07-26T10:55:57.805Z,100770.05
2018-07-26T10:58:26.619Z,100763.06
2018-07-26T11:00:56.351Z,100766.27
2018-07-26T11:03:27.614Z,100762.96
2018-07-26T11:06:05.441Z,100760.43
2018-07-26T11:08:36.119Z,100756.67
2018-07-26T11:11:04.952Z,100754.05
2018-07-26T11:13:33.564Z,100746.25
2018-07-26T11:16:02.251Z,100739.66
2018-07-26T11:18:41.927Z,100741.95
2018-07-26T11:21:10.679Z,100742.73
2018-07-26T11:23:43.414Z,100746.88
2018-07-26T11:26:12.230Z,100740.58
2018-07-26T11:28:50.601Z,100741.84
2018-07-26T11:31:19.252Z,100735.77
2018-07-26T11:33:47.950Z,100733.31
2018-07-26T11:36:16.660Z,100731.64
2018-07-26T11:38:53.032Z,100727.84
2018-07-26T11:41:21.771Z,100729.09
2018-07-26T11:44:08.275Z,100728.55
2018-07-26T11:46:37.262Z,100725.04
2018-07-26T11:49:05.959Z,100728.13
2018-07-26T11:51:34.670Z,100723.56
2018-07-26T11:54:03.257Z,100719.63
2018-07-26T11:56:32.057Z,100714.14
2018-07-26T11:59:00.771Z,100715.27
2018-07-26T12:01:29.756Z,100718.91
2018-07-26T12:03:58.492Z,100709.92
2018-07-26T12:06:27.189Z,100703.73
2018-07-26T12:08:59.071Z,100714.61
2018-07-26T12:11:27.768Z,100704.95
2018-07-26T12:13:56.531Z,100703.77
2018-07-26T12:16:32.296Z,100700.75
2018-07-26T12:19:09.247Z,100700.96
2018-07-26T12:21:37.897Z,100693.08
2018-07-26T12:24:26.523Z,100692.86
2018-07-26T12:26:55.222Z,100690.82
2018-07-26T12:29:24.180Z,100692.98
2018-07-26T12:31:52.971Z,100685.16
2018-07-26T12:34:21.634Z,100685.68
2018-07-26T12:36:50.399Z,100683.41
2018-07-26T12:39:21.131Z,100682.55
2018-07-26T12:41:49.812Z,100676.19
2018-07-26T12:44:18.461Z,100677.68
2018-07-26T12:46:47.286Z,100674.13
2018-07-26T12:49:18.131Z,100665.28
2018-07-26T12:51:47.440Z,100663.25
2018-07-26T12:54:16.089Z,100653.40
2018-07-26T12:56:44.984Z,100649.75
2018-07-26T12:59:13.806Z,100640.98
2018-07-26T13:01:42.483Z,100647.24
2018-07-26T13:04:11.268Z,100635.15
2018-07-26T13:06:39.929Z,100636.55
2018-07-26T13:09:12.275Z,100647.35
2018-07-26T13:11:40.926Z,100648.95
2018-07-26T13:14:09.948Z,100646.63
2018-07-26T13:16:38.720Z,100647.69
2018-07-26T13:19:15.215Z,100642.14
2018-07-26T13:21:43.963Z,100632.89
2018-07-26T13:24:12.701Z,100632.33
2018-07-26T13:26:41.490Z,100631.93
2018-07-26T13:29:13.581Z,100632.63
2018-07-26T13:31:42.285Z,100629.47
2018-07-26T13:34:11.092Z,100627.70
2018-07-26T13:36:39.903Z,100622.25
2018-07-26T13:39:13.651Z,100624.13
2018-07-26T13:41:43.419Z,100622.36
2018-07-26T13:44:12.237Z,100628.37
2018-07-26T13:46:40.985Z,100615.06
2018-07-26T13:49:11.742Z,100611.09
2018-07-26T13:51:40.585Z,100617.21
2018-07-26T13:54:09.502Z,100613.41
2018-07-26T13:56:49.360Z,100610.69
2018-07-26T13:59:31.303Z,100602.52
2018-07-26T14:02:18.926Z,100611.83
2018-07-26T14:04:59.675Z,100605.50
2018-07-26T14:07:41.510Z,100605.30
2018-07-26T14:10:27.342Z,100599.48
2018-07-26T14:13:14.634Z,100594.30
2018-07-26T14:15:44.622Z,100589.14
2018-07-26T14:18:14.050Z,100597.23
2018-07-26T14:20:42.744Z,100588.34
2018-07-26T14:23:16.691Z,100588.59
2018-07-26T14:25:46.014Z,100588.19
2018-07-26T14:28:15.809Z,100588.31
2018-07-26T14:30:44.625Z,100586.92
2018-07-26T14:33:13.353Z,100588.36
2018-07-26T14:35:42.003Z,100583.97
2018-07-26T14:38:10.850Z,100575.06
2018-07-26T14:40:39.487Z,100576.93
2018-07-26T14:43:08.325Z,100572.16
2018-07-26T14:45:37.066Z,100568.65
2018-07-26T14:48:05.762Z,100568.06
2018-07-26T14:50:35.067Z,100567.66
2018-07-26T14:53:03.900Z,100557.42
2018-07-26T14:55:32.672Z,100555.98
2018-07-26T14:58:01.340Z,100560.44
2018-07-26T15:00:30.086Z,100560.19
2018-07-26T15:02:58.994Z,100564.66
2018-07-26T15:05:27.688Z,100558.06
2018-07-26T15:07:56.370Z,100555.61
2018-07-26T15:10:29.593Z,100551.56
2018-07-26T15:12:58.238Z,100556.03
2018-07-26T15:15:26.973Z,100546.16
2018-07-26T15:17:55.711Z,100551.38
2018-07-26T15:20:38.981Z,100551.00
2018-07-26T15:23:07.683Z,100553.00
2018-07-26T15:25:36.364Z,100559.72
2018-07-26T15:28:05.002Z,100558.59
2018-07-26T15:30:50.228Z,100562.31
2018-07-26T15:33:18.885Z,100549.69
2018-07-26T15:35:47.660Z,100556.13
2018-07-26T15:38:16.400Z,100539.03
2018-07-26T15:40:45.146Z,100547.38
2018-07-26T15:43:14.068Z,100542.81
2018-07-26T15:45:43.005Z,100539.03
2018-07-26T15:48:11.752Z,100546.77
2018-07-26T15:50:41.433Z,100538.56
2018-07-26T15:53:10.200Z,100541.03
2018-07-26T15:55:38.903Z,100536.05
2018-07-26T15:58:07.699Z,100541.44
2018-07-26T16:00:36.561Z,100546.52
2018-07-26T16:03:05.432Z,100538.09
2018-07-26T16:05:34.114Z,100536.55
2018-07-26T16:08:02.785Z,100539.64
2018-07-26T16:10:31.759Z,100538.20
2018-07-26T16:13:00.860Z,100531.11
2018-07-26T16:15:29.619Z,100525.17
2018-07-26T16:17:58.476Z,100531.45
2018-07-26T16:20:28.317Z,100528.14
2018-07-26T16:22:56.945Z,100524.15
2018-07-26T16:25:25.691Z,100525.27
2018-07-26T16:27:54.859Z,100524.72
2018-07-26T16:30:23.815Z,100527.30
2018-07-26T16:32:52.502Z,100521.47
2018-07-26T16:35:21.190Z,100523.23
2018-07-26T16:37:50.063Z,100521.99
2018-07-26T16:40:19.944Z,100514.33
2018-07-26T16:42:48.584Z,100513.34
2018-07-26T16:45:17.252Z,100517.39
2018-07-26T16:47:45.992Z,100505.58
2018-07-26T16:50:14.672Z,100514.05
2018-07-26T16:52:43.345Z,100511.91
2018-07-26T16:55:12.016Z,100509.72
2018-07-26T16:57:40.726Z,100511.55
2018-07-26T17:00:10.121Z,100503.11
2018-07-26T17:02:38.957Z,100507.73
2018-07-26T17:05:08.494Z,100496.20
2018-07-26T17:07:37.299Z,100506.96
2018-07-26T17:10:07.147Z,100497.80
2018-07-26T17:12:35.903Z,100509.57
2018-07-26T17:15:05.591Z,100514.25
2018-07-26T17:17:34.239Z,100509.55
2018-07-26T17:20:02.865Z,100511.46
2018-07-26T17:22:31.540Z,100508.21
2018-07-26T17:25:00.325Z,100516.27
2018-07-26T17:27:29.207Z,100516.30
2018-07-26T17:29:58.005Z,100519.52
2018-07-26T17:32:26.920Z,100517.88
2018-07-26T17:34:55.745Z,100517.72
2018-07-26T17:37:24.291Z,100521.75
2018-07-26T17:39:53.141Z,100516.92
2018-07-26T17:42:21.895Z,100520.25
2018-07-26T17:44:50.652Z,100521.54
2018-07-26T17:47:19.419Z,100526.31
2018-07-26T17:49:48.054Z,100530.33
2018-07-26T17:52:16.650Z,100527.97
2018-07-26T17:54:45.502Z,100536.42
2018-07-26T17:57:14.270Z,100533.34
2018-07-26T17:59:45.733Z,100532.77
2018-07-26T18:02:14.610Z,100540.61
2018-07-26T18:04:43.274Z,100540.99
2018-07-26T18:07:11.909Z,100549.63
2018-07-26T18:09:40.648Z,100547.30
2018-07-26T18:12:09.379Z,100551.08
2018-07-26T18:14:38.178Z,100558.87
2018-07-26T18:17:06.938Z,100559.09
2018-07-26T18:19:35.688Z,100557.01
2018-07-26T18:22:04.547Z,100555.01
2018-07-26T18:24:33.309Z,100561.28
2018-07-26T18:27:02.217Z,100557.67
2018-07-26T18:29:30.991Z,100562.04
2018-07-26T18:31:59.672Z,100568.81
2018-07-26T18:34:28.307Z,100559.59
2018-07-26T18:36:57.113Z,100576.30
2018-07-26T18:39:25.921Z,100571.07
2018-07-26T18:41:56.807Z,100571.53
2018-07-26T18:44:25.585Z,100572.57
2018-07-26T18:46:54.364Z,100570.49
2018-07-26T18:49:23.123Z,100578.05
2018-07-26T18:51:51.857Z,100577.95
2018-07-26T18:54:20.541Z,100583.09
2018-07-26T18:56:49.330Z,100592.56
2018-07-26T18:59:17.984Z,100594.97
2018-07-26T19:01:46.855Z,100593.45
2018-07-26T19:04:15.561Z,100593.49
2018-07-26T19:06:44.280Z,100596.09
2018-07-26T19:09:13.572Z,100598.39
2018-07-26T19:11:42.963Z,100598.60
2018-07-26T19:14:11.831Z,100606.03
2018-07-26T19:16:40.683Z,100615.63
2018-07-26T19:19:09.600Z,100619.23
2018-07-26T19:21:38.259Z,100616.20
2018-07-26T19:24:07.035Z,100621.30
2018-07-26T19:26:35.758Z,100626.73
2018-07-26T19:29:04.651Z,100628.89
2018-07-26T19:31:33.431Z,100630.66
2018-07-26T19:34:02.092Z,100638.63
2018-07-26T19:36:30.816Z,100638.05
2018-07-26T19:38:59.592Z,100638.94
2018-07-26T19:41:28.271Z,100643.05
2018-07-26T19:43:56.953Z,100648.84
2018-07-26T19:46:26.547Z,100648.73
2018-07-26T19:48:55.255Z,100655.27
2018-07-26T19:51:25.582Z,100655.88
2018-07-26T19:53:54.277Z,100663.70
2018-07-26T19:56:22.976Z,100654.91
2018-07-26T19:58:51.778Z,100656.84
2018-07-26T20:01:20.384Z,100658.67
2018-07-26T20:03:49.269Z,100659.86
2018-07-26T20:06:17.921Z,100664.13
2018-07-26T20:08:46.634Z,100663.92
2018-07-26T20:11:15.452Z,100666.45
2018-07-26T20:13:44.114Z,100672.70
2018-07-26T20:16:12.836Z,100666.31
2018-07-26T20:18:41.610Z,100671.53
2018-07-26T20:21:10.437Z,100670.87
2018-07-26T20:23:39.156Z,100674.39
2018-07-26T20:26:07.819Z,100670.63
2018-07-26T20:28:36.486Z,100676.14
2018-07-26T20:31:05.309Z,100677.13
2018-07-26T20:33:34.075Z,100672.62
2018-07-26T20:36:02.852Z,100672.22
2018-07-26T20:38:31.513Z,100674.28
2018-07-26T20:41:00.258Z,100673.01
2018-07-26T20:43:28.910Z,100682.09
2018-07-26T20:45:57.620Z,100680.02
2018-07-26T20:48:26.285Z,100679.87
2018-07-26T20:50:55.163Z,100682.89
2018-07-26T20:53:23.880Z,100686.27
2018-07-26T20:55:52.545Z,100685.30
2018-07-26T20:58:21.235Z,100690.91
2018-07-26T21:00:49.810Z,100693.81
2018-07-26T21:03:18.544Z,100691.24
2018-07-26T21:05:47.242Z,100690.47
2018-07-26T21:08:15.916Z,100687.81
2018-07-26T21:10:44.647Z,100693.36
2018-07-26T21:13:13.186Z,100691.02
2018-07-26T21:15:41.914Z,100691.13
2018-07-26T21:18:10.687Z,100695.08
2018-07-26T21:20:39.412Z,100697.69
2018-07-26T21:23:08.229Z,100691.27
2018-07-26T21:25:36.923Z,100692.42
2018-07-26T21:28:05.541Z,100693.83
2018-07-26T21:30:34.306Z,100696.59
2018-07-26T21:33:02.904Z,100699.33
2018-07-26T21:35:31.504Z,100711.70
2018-07-26T21:38:00.165Z,100704.41
2018-07-26T21:40:28.783Z,100710.27
2018-07-26T21:42:57.467Z,100705.41
2018-07-26T21:45:26.285Z,100708.23
2018-07-26T21:47:54.971Z,100712.09
2018-07-26T21:50:23.735Z,100714.30
2018-07-26T21:52:52.408Z,100710.42
2018-07-26T21:55:21.148Z,100714.19
2018-07-26T21:57:49.635Z,100716.40
2018-07-26T22:00:18.368Z,100715.55
2018-07-26T22:02:46.955Z,100727.27
2018-07-26T22:05:15.751Z,100724.27
2018-07-26T22:07:44.334Z,100724.87
2018-07-26T22:10:13.061Z,100732.28
2018-07-26T22:12:41.801Z,100729.58
2018-07-26T22:15:10.500Z,100729.35
2018-07-26T22:17:39.236Z,100730.55
2018-07-26T22:20:08.009Z,100732.03
2018-07-26T22:22:36.627Z,100732.13
2018-07-26T22:25:05.603Z,100730.81
2018-07-26T22:27:34.226Z,100728.94
2018-07-26T22:30:03.025Z,100730.92
2018-07-26T22:32:31.746Z,100731.21
2018-07-26T22:35:00.480Z,100732.92
2018-07-26T22:37:29.267Z,100737.83
2018-07-26T22:39:57.986Z,100739.53
2018-07-26T22:42:26.570Z,100738.23
2018-07-26T22:44:55.266Z,100737.46
2018-07-26T22:47:23.981Z,100736.11
2018-07-26T22:49:52.772Z,100732.86
2018-07-26T22:52:21.494Z,100735.34
2018-07-26T22:54:50.260Z,100734.28
2018-07-26T22:57:18.858Z,100732.37
2018-07-26T22:59:47.550Z,100734.58
2018-07-26T23:02:16.317Z,100727.77
2018-07-26T23:04:45.125Z,100728.05
2018-07-26T23:07:14.783Z,100732.14
2018-07-26T23:09:43.441Z,100726.16
2018-07-26T23:12:14.181Z,100736.74
2018-07-26T23:14:42.799Z,100736.20
2018-07-26T23:17:11.927Z,100735.37
2018-07-26T23:19:40.580Z,100737.04
2018-07-26T23:22:09.415Z,100735.15
2018-07-26T23:24:38.103Z,100730.78
2018-07-26T23:27:06.795Z,100736.55
2018-07-26T23:29:35.442Z,100731.94
2018-07-26T23:32:04.010Z,100731.40
2018-07-26T23:34:32.503Z,100731.15
2018-07-26T23:37:01.151Z,100726.78
2018-07-26T23:39:29.682Z,100737.69
2018-07-26T23:41:58.337Z,100733.34
2018-07-26T23:44:26.916Z,100731.73
2018-07-26T23:46:55.552Z,100736.91
2018-07-26T23:49:24.156Z,100730.68
2018-07-26T23:51:52.931Z,100736.67
2018-07-26T23:54:21.584Z,100738.28
2018-07-26T23:56:50.322Z,100734.75
2018-07-26T23:59:18.950Z,100734.47
